createdAt,value
2022-09-25T00:01:13.024Z,12.25
2022-09-25T00:03:43.942Z,17.00
2022-09-25T00:06:18.768Z,17.50
2022-09-25T00:08:50.565Z,5.00
2022-09-25T00:11:27.894Z,10.50
2022-09-25T00:14:00.217Z,10.00
2022-09-25T00:16:33.129Z,12.33
2022-09-25T00:19:22.314Z,11.50
2022-09-25T00:21:54.103Z,19.00
2022-09-25T00:24:24.883Z,10.50
2022-09-25T00:26:55.311Z,13.00
2022-09-25T00:29:28.203Z,20.75
2022-09-25T00:31:58.974Z,9.67
2022-09-25T00:34:29.740Z,12.00
2022-09-25T00:37:00.301Z,15.00
2022-09-25T00:39:31.408Z,18.50
2022-09-25T00:42:02.217Z,7.00
2022-09-25T00:44:59.186Z,15.00
2022-09-25T00:47:49.467Z,25.33
2022-09-25T00:50:33.065Z,13.75
2022-09-25T00:53:16.461Z,37.25
2022-09-25T00:55:48.293Z,12.25
2022-09-25T00:58:24.413Z,18.75
2022-09-25T01:00:55.691Z,21.50
2022-09-25T01:03:27.225Z,13.00
2022-09-25T01:06:01.262Z,22.50
2022-09-25T01:08:34.318Z,25.50
2022-09-25T01:11:04.456Z,29.00
2022-09-25T01:13:35.339Z,27.00
2022-09-25T01:16:18.597Z,24.75
2022-09-25T01:19:17.140Z,24.50
2022-09-25T01:21:51.735Z,24.00
2022-09-25T01:24:43.816Z,23.75
2022-09-25T01:27:30.008Z,18.00
2022-09-25T01:30:08.482Z,25.25
2022-09-25T01:32:52.942Z,29.50
2022-09-25T01:35:45.868Z,25.00
2022-09-25T01:38:39.617Z,6.50
2022-09-25T01:41:24.793Z,29.00
2022-09-25T01:46:52.247Z,16.00
2022-09-25T01:49:36.186Z,11.00
2022-09-25T01:52:21.546Z,30.00
2022-09-25T01:55:02.035Z,21.25
2022-09-25T01:57:41.933Z,32.00
2022-09-25T02:00:16.271Z,37.50
2022-09-25T02:02:56.516Z,30.25
2022-09-25T02:05:37.663Z,30.25
2022-09-25T02:08:17.118Z,24.25
2022-09-25T02:10:58.565Z,39.00
2022-09-25T02:14:03.161Z,21.00
2022-09-25T02:16:48.636Z,23.67
2022-09-25T02:19:38.199Z,19.25
2022-09-25T02:22:37.620Z,34.25
2022-09-25T02:25:22.479Z,32.75
2022-09-25T02:27:52.559Z,34.00
2022-09-25T02:30:22.853Z,30.00
2022-09-25T02:32:53.011Z,24.75
2022-09-25T02:35:23.729Z,32.00
2022-09-25T02:37:57.512Z,27.25
2022-09-25T02:41:06.870Z,33.25
2022-09-25T02:43:53.111Z,35.50
2022-09-25T02:46:45.089Z,35.75
2022-09-25T02:49:52.509Z,26.50
2022-09-25T02:52:52.519Z,34.75
2022-09-25T02:55:55.202Z,34.00
2022-09-25T02:58:45.183Z,24.00
2022-09-25T03:01:18.658Z,25.75
2022-09-25T03:03:52.092Z,23.00
2022-09-25T03:06:24.666Z,21.67
2022-09-25T03:09:00.727Z,23.25
2022-09-25T03:11:31.143Z,34.75
2022-09-25T03:14:04.048Z,34.75
2022-09-25T03:16:44.981Z,33.25
2022-09-25T03:19:20.913Z,34.75
2022-09-25T03:21:52.431Z,35.75
2022-09-25T03:24:23.465Z,36.75
2022-09-25T03:26:55.284Z,38.33
2022-09-25T03:29:26.553Z,31.75
2022-09-25T03:31:56.797Z,37.75
2022-09-25T03:34:27.157Z,25.25
2022-09-25T03:36:57.362Z,32.50
2022-09-25T03:41:57.237Z,35.25
2022-09-25T03:44:31.223Z,35.50
2022-09-25T03:47:02.050Z,24.00
2022-09-25T03:52:02.889Z,39.00
2022-09-25T03:54:34.075Z,36.50
2022-09-25T03:57:04.681Z,29.00
2022-09-25T03:59:35.353Z,32.25
2022-09-25T04:02:06.020Z,32.33
2022-09-25T04:04:36.442Z,38.50
2022-09-25T04:07:09.791Z,35.00
2022-09-25T04:09:41.175Z,37.25
2022-09-25T04:12:12.693Z,39.67
2022-09-25T04:14:43.577Z,37.50
2022-09-25T04:17:14.232Z,35.00
2022-09-25T04:19:45.060Z,39.00
2022-09-25T04:22:15.817Z,33.50
2022-09-25T04:24:52.061Z,31.33
2022-09-25T04:27:24.341Z,32.67
2022-09-25T04:29:55.308Z,35.75
2022-09-25T04:32:43.712Z,56.00
2022-09-25T04:35:14.593Z,46.50
2022-09-25T04:37:44.628Z,37.25
2022-09-25T04:40:14.863Z,40.50
2022-09-25T04:42:46.068Z,37.00
2022-09-25T04:45:17.424Z,33.33
2022-09-25T04:47:47.593Z,34.50
2022-09-25T04:50:17.786Z,36.50
2022-09-25T04:52:47.976Z,40.75
2022-09-25T04:55:25.678Z,43.50
2022-09-25T04:57:59.091Z,29.25
2022-09-25T05:00:32.899Z,33.00
2022-09-25T05:03:05.970Z,31.00
2022-09-25T05:05:37.317Z,31.50
2022-09-25T05:08:08.091Z,31.25
2022-09-25T05:10:41.063Z,35.67
2022-09-25T05:13:13.368Z,28.75
2022-09-25T05:15:46.388Z,36.75
2022-09-25T05:18:23.512Z,33.00
2022-09-25T05:20:55.670Z,36.50
2022-09-25T05:23:26.454Z,36.75
2022-09-25T05:25:59.366Z,37.50
2022-09-25T05:28:30.465Z,35.50
2022-09-25T05:31:07.927Z,37.25
2022-09-25T05:33:38.742Z,36.67
2022-09-25T05:36:09.985Z,40.75
2022-09-25T05:38:42.378Z,31.33
2022-09-25T05:41:13.820Z,36.25
2022-09-25T05:43:48.953Z,32.67
2022-09-25T05:46:19.843Z,36.00
2022-09-25T05:48:49.906Z,38.75
2022-09-25T05:51:19.950Z,42.67
2022-09-25T05:53:52.527Z,39.50
2022-09-25T05:56:25.657Z,37.25
2022-09-25T05:59:00.005Z,42.75
2022-09-25T06:01:30.549Z,41.75
2022-09-25T06:04:00.726Z,38.50
2022-09-25T06:06:33.305Z,43.50
2022-09-25T06:11:33.574Z,41.50
2022-09-25T06:14:05.183Z,40.00
2022-09-25T06:16:36.751Z,35.25
2022-09-25T06:19:07.350Z,38.33
2022-09-25T06:21:40.983Z,42.50
2022-09-25T06:24:15.026Z,39.00
2022-09-25T06:26:46.085Z,40.25
2022-09-25T06:29:16.648Z,43.00
2022-09-25T06:31:47.702Z,40.25
2022-09-25T06:34:18.502Z,41.50
2022-09-25T06:36:49.590Z,40.00
2022-09-25T06:39:19.970Z,36.75
2022-09-25T06:41:51.149Z,39.33
2022-09-25T06:44:24.443Z,37.33
2022-09-25T06:46:55.946Z,37.33
2022-09-25T06:49:27.210Z,40.67
2022-09-25T06:51:58.252Z,39.00
2022-09-25T06:54:33.347Z,38.50
2022-09-25T06:57:04.294Z,44.00
2022-09-25T06:59:34.997Z,44.25
2022-09-25T07:02:23.354Z,37.33
2022-09-25T07:04:54.303Z,37.50
2022-09-25T07:07:25.736Z,40.00
2022-09-25T07:09:56.582Z,42.00
2022-09-25T07:12:26.964Z,43.00
2022-09-25T07:14:57.988Z,43.50
2022-09-25T07:17:28.461Z,42.25
2022-09-25T07:19:59.363Z,43.75
2022-09-25T07:22:30.941Z,41.00
2022-09-25T07:25:01.714Z,43.50
2022-09-25T07:27:32.754Z,44.00
2022-09-25T07:30:06.253Z,43.50
2022-09-25T07:32:37.157Z,42.00
2022-09-25T07:35:07.738Z,43.50
2022-09-25T07:37:37.941Z,40.00
2022-09-25T07:40:08.852Z,43.25
2022-09-25T07:42:39.601Z,43.75
2022-09-25T07:45:11.000Z,44.50
2022-09-25T07:47:41.198Z,45.00
2022-09-25T07:50:15.366Z,43.00
2022-09-25T07:52:46.047Z,45.00
2022-09-25T07:55:16.351Z,44.33
2022-09-25T07:57:46.729Z,45.00
2022-09-25T08:00:17.133Z,46.00
2022-09-25T08:02:47.209Z,44.75
2022-09-25T08:05:17.446Z,46.00
2022-09-25T08:07:47.631Z,46.00
2022-09-25T08:10:20.432Z,44.50
2022-09-25T08:12:51.264Z,41.25
2022-09-25T08:15:22.155Z,46.50
2022-09-25T08:17:53.122Z,42.33
2022-09-25T08:20:23.444Z,45.25
2022-09-25T08:22:56.664Z,42.75
2022-09-25T08:25:26.718Z,45.50
2022-09-25T08:27:56.875Z,44.75
2022-09-25T08:30:27.123Z,47.50
2022-09-25T08:32:57.493Z,45.50
2022-09-25T08:35:29.275Z,40.25
2022-09-25T08:38:00.415Z,45.75
2022-09-25T08:40:33.844Z,44.75
2022-09-25T08:43:05.014Z,42.00
2022-09-25T08:46:11.061Z,44.00
2022-09-25T08:49:08.503Z,41.33
2022-09-25T08:51:51.935Z,40.33
2022-09-25T08:54:30.868Z,41.00
2022-09-25T08:57:21.122Z,41.33
2022-09-25T09:00:01.466Z,43.00
2022-09-25T09:02:39.845Z,45.00
2022-09-25T09:05:25.674Z,34.75
2022-09-25T09:08:21.296Z,38.75
2022-09-25T09:10:57.735Z,42.33
2022-09-25T09:13:39.765Z,43.75
2022-09-25T09:16:17.199Z,47.00
2022-09-25T09:18:47.365Z,44.50
2022-09-25T09:21:28.938Z,47.67
2022-09-25T09:24:22.647Z,45.75
2022-09-25T09:27:29.506Z,42.00
2022-09-25T09:30:06.255Z,42.50
2022-09-25T09:32:48.862Z,42.00
2022-09-25T09:35:45.533Z,40.50
2022-09-25T09:38:49.272Z,44.25
2022-09-25T09:41:43.793Z,41.50
2022-09-25T09:44:35.008Z,48.00
2022-09-25T09:47:14.246Z,43.00
2022-09-25T09:50:03.486Z,45.00
2022-09-25T09:52:43.185Z,43.50
2022-09-25T09:58:10.096Z,43.00
2022-09-25T10:00:41.988Z,44.50
2022-09-25T10:03:19.229Z,45.67
2022-09-25T10:05:57.122Z,44.33
2022-09-25T10:08:27.858Z,39.75
2022-09-25T10:11:00.619Z,41.00
2022-09-25T10:13:40.242Z,41.75
2022-09-25T10:16:14.431Z,42.00
2022-09-25T10:19:25.454Z,44.00
2022-09-25T10:22:09.038Z,44.33
2022-09-25T10:25:06.746Z,45.00
2022-09-25T10:27:47.628Z,44.75
2022-09-25T10:30:23.653Z,44.00
2022-09-25T10:33:14.631Z,42.00
2022-09-25T10:35:47.568Z,41.67
2022-09-25T10:38:27.099Z,39.50
2022-09-25T10:41:09.980Z,43.00
2022-09-25T10:44:04.824Z,44.33
2022-09-25T10:49:47.309Z,42.33
2022-09-25T10:54:53.837Z,41.75
2022-09-25T10:57:39.559Z,41.25
2022-09-25T11:00:25.238Z,41.33
2022-09-25T11:03:00.999Z,34.50
2022-09-25T11:05:39.626Z,42.25
2022-09-25T11:08:10.666Z,40.50
2022-09-25T11:11:00.444Z,45.25
2022-09-25T11:13:47.877Z,43.25
2022-09-25T11:16:18.755Z,40.75
2022-09-25T11:18:52.591Z,42.75
2022-09-25T11:21:31.918Z,34.33
2022-09-25T11:24:22.974Z,39.00
2022-09-25T11:29:40.903Z,40.75
2022-09-25T11:32:47.703Z,35.50
2022-09-25T11:38:11.620Z,38.67
2022-09-25T11:41:17.806Z,44.00
2022-09-25T11:44:12.484Z,42.50
2022-09-25T11:47:03.186Z,42.25
2022-09-25T11:49:39.541Z,40.75
2022-09-25T11:52:39.187Z,40.50
2022-09-25T11:55:35.980Z,43.00
2022-09-25T11:58:24.236Z,41.25
2022-09-25T12:01:27.565Z,42.50
2022-09-25T12:04:09.889Z,40.67
2022-09-25T12:07:13.370Z,41.00
2022-09-25T12:09:55.764Z,42.00
2022-09-25T12:12:46.570Z,41.00
2022-09-25T12:15:34.681Z,44.00
2022-09-25T12:18:39.346Z,42.67
2022-09-25T12:21:13.036Z,41.75
2022-09-25T12:23:49.791Z,32.75
2022-09-25T12:26:28.059Z,40.25
2022-09-25T12:29:30.495Z,43.67
2022-09-25T12:32:17.932Z,36.50
2022-09-25T12:35:16.370Z,41.25
2022-09-25T12:38:04.985Z,44.67
2022-09-25T12:41:13.641Z,40.50
2022-09-25T12:43:49.767Z,44.25
2022-09-25T12:46:47.343Z,42.75
2022-09-25T12:49:35.332Z,40.00
2022-09-25T12:52:30.479Z,40.33
2022-09-25T12:55:06.528Z,40.67
2022-09-25T12:57:47.244Z,40.00
2022-09-25T13:00:27.158Z,47.50
2022-09-25T13:05:39.167Z,42.25
2022-09-25T13:08:22.022Z,42.00
2022-09-25T13:10:59.365Z,45.75
2022-09-25T13:13:38.505Z,43.75
2022-09-25T13:16:09.335Z,43.00
2022-09-25T13:18:40.823Z,38.67
2022-09-25T13:21:38.256Z,39.75
2022-09-25T13:24:15.123Z,42.00
2022-09-25T13:26:57.969Z,41.00
2022-09-25T13:29:33.080Z,37.50
2022-09-25T13:32:26.747Z,42.50
2022-09-25T13:35:04.223Z,38.67
2022-09-25T13:37:40.912Z,41.25
2022-09-25T13:40:39.159Z,44.00
2022-09-25T13:43:27.096Z,44.75
2022-09-25T13:46:30.563Z,42.00
2022-09-25T13:49:36.723Z,40.75
2022-09-25T13:52:38.837Z,40.00
2022-09-25T13:58:01.393Z,38.00
2022-09-25T14:01:00.459Z,41.25
2022-09-25T14:03:41.154Z,38.75
2022-09-25T14:06:24.410Z,35.00
2022-09-25T14:09:00.364Z,37.50
2022-09-25T14:11:35.830Z,33.33
2022-09-25T14:14:39.881Z,36.75
2022-09-25T14:17:18.201Z,35.33
2022-09-25T14:19:53.739Z,35.67
2022-09-25T14:22:41.938Z,38.75
2022-09-25T14:25:34.342Z,31.25
2022-09-25T14:28:18.197Z,38.00
2022-09-25T14:31:16.218Z,36.25
2022-09-25T14:34:11.144Z,29.75
2022-09-25T14:37:02.095Z,32.33
2022-09-25T14:39:57.630Z,34.75
2022-09-25T14:45:10.230Z,40.75
2022-09-25T14:47:48.938Z,47.00
2022-09-25T14:50:29.678Z,33.00
2022-09-25T14:53:06.322Z,34.50
2022-09-25T14:55:41.681Z,34.00
2022-09-25T14:58:18.450Z,33.00
2022-09-25T15:00:52.936Z,39.25
2022-09-25T15:03:33.017Z,33.75
2022-09-25T15:06:04.074Z,40.50
2022-09-25T15:11:14.507Z,37.33
2022-09-25T15:13:47.470Z,45.50
2022-09-25T15:16:43.114Z,46.33
2022-09-25T15:19:24.352Z,39.67
2022-09-25T15:21:56.205Z,41.25
2022-09-25T15:24:33.680Z,40.50
2022-09-25T15:27:08.158Z,35.00
2022-09-25T15:29:43.795Z,30.50
2022-09-25T15:32:31.447Z,41.50
2022-09-25T15:35:16.485Z,36.25
2022-09-25T15:37:48.590Z,35.50
2022-09-25T15:40:32.161Z,37.50
2022-09-25T15:43:04.387Z,42.33
2022-09-25T15:46:12.563Z,41.50
2022-09-25T15:48:55.551Z,35.25
2022-09-25T15:51:34.914Z,31.50
2022-09-25T15:54:33.809Z,32.00
2022-09-25T15:57:08.494Z,31.50
2022-09-25T16:02:56.175Z,38.25
2022-09-25T16:05:38.038Z,34.00
2022-09-25T16:08:17.702Z,34.75
2022-09-25T16:10:50.300Z,40.25
2022-09-25T16:13:27.329Z,36.25
2022-09-25T16:18:41.232Z,35.75
2022-09-25T16:21:16.772Z,37.00
2022-09-25T16:23:57.512Z,36.25
2022-09-25T16:29:09.886Z,38.25
2022-09-25T16:31:45.318Z,30.25
2022-09-25T16:34:39.873Z,34.50
2022-09-25T16:37:22.993Z,29.00
2022-09-25T16:40:20.513Z,39.50
2022-09-25T16:42:52.262Z,26.00
2022-09-25T16:45:26.488Z,37.50
2022-09-25T16:47:59.870Z,34.75
2022-09-25T16:50:35.282Z,41.25
2022-09-25T16:53:07.750Z,35.50
2022-09-25T16:55:54.761Z,37.00
2022-09-25T16:58:24.951Z,26.00
2022-09-25T17:00:55.067Z,40.00
2022-09-25T17:05:54.766Z,32.25
2022-09-25T17:08:26.398Z,29.50
2022-09-25T17:10:57.714Z,30.25
2022-09-25T17:13:34.657Z,31.75
2022-09-25T17:16:05.057Z,35.25
2022-09-25T17:18:36.690Z,26.75
2022-09-25T17:21:14.120Z,35.75
2022-09-25T17:23:45.958Z,31.00
2022-09-25T17:26:24.556Z,30.33
2022-09-25T17:28:54.773Z,31.00
2022-09-25T17:31:25.093Z,47.00
2022-09-25T17:36:25.225Z,37.00
2022-09-25T17:38:55.347Z,37.25
2022-09-25T17:41:38.107Z,30.00
2022-09-25T17:44:12.149Z,39.75
2022-09-25T17:46:42.699Z,38.25
2022-09-25T17:49:12.883Z,40.75
2022-09-25T17:51:43.755Z,26.67
2022-09-25T17:54:14.734Z,31.00
2022-09-25T17:56:46.608Z,34.50
2022-09-25T17:59:17.172Z,35.33
2022-09-25T18:04:27.902Z,28.00
2022-09-25T18:06:58.188Z,28.25
2022-09-25T18:09:28.378Z,25.50
2022-09-25T18:11:58.855Z,36.75
2022-09-25T18:14:29.061Z,34.75
2022-09-25T18:16:59.507Z,31.25
2022-09-25T18:19:47.448Z,36.00
2022-09-25T18:22:22.811Z,20.75
2022-09-25T18:24:57.731Z,33.75
2022-09-25T18:27:32.424Z,38.00
2022-09-25T18:30:03.098Z,32.50
2022-09-25T18:32:34.271Z,23.00
2022-09-25T18:35:04.733Z,24.33
2022-09-25T18:37:35.146Z,35.00
2022-09-25T18:40:06.351Z,38.00
2022-09-25T18:42:36.791Z,35.25
2022-09-25T18:45:08.752Z,36.75
2022-09-25T18:47:39.301Z,34.25
2022-09-25T18:50:12.881Z,26.25
2022-09-25T18:52:47.631Z,32.00
2022-09-25T18:55:18.855Z,37.50
2022-09-25T18:57:49.326Z,38.00
2022-09-25T19:00:20.117Z,44.00
2022-09-25T19:02:50.520Z,23.67
2022-09-25T19:05:21.493Z,38.00
2022-09-25T19:07:53.175Z,33.00
2022-09-25T19:10:25.501Z,35.00
2022-09-25T19:12:55.959Z,36.75
2022-09-25T19:15:26.510Z,33.25
2022-09-25T19:18:00.017Z,34.25
2022-09-25T19:20:30.712Z,36.33
2022-09-25T19:23:02.342Z,36.67
2022-09-25T19:25:32.768Z,38.33
2022-09-25T19:28:03.245Z,34.00
2022-09-25T19:30:33.809Z,35.00
2022-09-25T19:33:06.167Z,25.25
2022-09-25T19:35:36.860Z,37.50
2022-09-25T19:38:11.817Z,35.25
2022-09-25T19:40:43.612Z,34.75
2022-09-25T19:43:14.115Z,37.33
2022-09-25T19:45:52.213Z,31.50
2022-09-25T19:48:26.356Z,32.00
2022-09-25T19:50:56.864Z,38.50
2022-09-25T19:53:26.960Z,40.00
2022-09-25T19:55:59.541Z,26.00
2022-09-25T19:58:31.160Z,47.67
2022-09-25T20:01:02.103Z,35.75
2022-09-25T20:03:33.010Z,38.25
2022-09-25T20:06:04.822Z,35.75
2022-09-25T20:08:36.024Z,38.50
2022-09-25T20:11:19.814Z,32.50
2022-09-25T20:13:53.049Z,33.75
2022-09-25T20:16:26.620Z,34.75
2022-09-25T20:19:06.890Z,36.25
2022-09-25T20:21:43.198Z,36.00
2022-09-25T20:24:14.271Z,33.75
2022-09-25T20:29:16.625Z,35.00
2022-09-25T20:31:47.964Z,36.25
2022-09-25T20:34:21.322Z,39.67
2022-09-25T20:36:52.134Z,30.67
2022-09-25T20:39:24.362Z,36.00
2022-09-25T20:41:54.449Z,36.00
2022-09-25T20:44:24.857Z,33.50
2022-09-25T20:46:54.925Z,43.25
2022-09-25T20:49:25.130Z,37.00
2022-09-25T20:51:55.401Z,40.50
2022-09-25T20:54:30.725Z,27.75
2022-09-25T20:57:00.840Z,36.33
2022-09-25T21:02:00.348Z,31.25
2022-09-25T21:04:31.169Z,42.25
2022-09-25T21:07:01.403Z,25.50
2022-09-25T21:09:32.464Z,35.25
2022-09-25T21:12:06.820Z,35.50
2022-09-25T21:14:37.146Z,37.67
2022-09-25T21:17:07.514Z,33.00
2022-09-25T21:19:37.958Z,40.50
2022-09-25T21:22:08.766Z,25.00
2022-09-25T21:24:39.091Z,34.50
2022-09-25T21:27:09.730Z,35.00
2022-09-25T21:29:39.958Z,30.75
2022-09-25T21:32:10.675Z,23.00
2022-09-25T21:34:40.737Z,33.50
2022-09-25T21:37:10.787Z,39.50
2022-09-25T21:39:41.102Z,29.50
2022-09-25T21:42:11.420Z,27.75
2022-09-25T21:44:41.385Z,25.00
2022-09-25T21:47:11.549Z,34.25
2022-09-25T21:49:41.690Z,33.00
2022-09-25T21:52:12.065Z,33.75
2022-09-25T21:57:14.542Z,28.67
2022-09-25T21:59:44.610Z,29.25
2022-09-25T22:02:14.706Z,26.25
2022-09-25T22:04:45.550Z,22.75
2022-09-25T22:07:15.918Z,25.50
2022-09-25T22:09:46.639Z,21.33
2022-09-25T22:12:16.834Z,27.00
2022-09-25T22:14:46.839Z,32.00
2022-09-25T22:17:17.075Z,31.25
2022-09-25T22:19:47.567Z,35.00
2022-09-25T22:22:17.528Z,24.50
2022-09-25T22:24:47.463Z,35.67
2022-09-25T22:27:17.701Z,27.25
2022-09-25T22:29:47.785Z,31.33
2022-09-25T22:32:17.882Z,24.50
2022-09-25T22:34:48.126Z,29.25
2022-09-25T22:37:19.688Z,32.75
2022-09-25T22:42:19.774Z,31.75
2022-09-25T22:44:49.850Z,24.00
2022-09-25T22:47:19.890Z,31.33
2022-09-25T22:49:50.104Z,45.00
2022-09-25T22:52:20.772Z,32.00
2022-09-25T22:54:50.981Z,23.75
2022-09-25T22:57:21.602Z,28.00
2022-09-25T22:59:51.879Z,35.00
2022-09-25T23:02:22.333Z,37.50
2022-09-25T23:04:55.184Z,39.00
2022-09-25T23:07:25.644Z,22.25
2022-09-25T23:09:55.864Z,26.50
2022-09-25T23:12:30.411Z,19.50
2022-09-25T23:15:01.313Z,15.50
2022-09-25T23:17:31.733Z,22.33
2022-09-25T23:20:02.027Z,24.67
2022-09-25T23:22:33.094Z,23.67
2022-09-25T23:25:03.379Z,22.50
2022-09-25T23:27:35.252Z,14.75
2022-09-25T23:30:06.145Z,22.00
2022-09-25T23:32:37.902Z,23.00
2022-09-25T23:35:09.010Z,26.75
2022-09-25T23:37:42.715Z,19.33
2022-09-25T23:40:15.736Z,38.00
2022-09-25T23:42:46.468Z,39.75
2022-09-25T23:45:17.031Z,42.25
2022-09-25T23:47:47.552Z,37.33
2022-09-25T23:52:47.326Z,32.25
2022-09-25T23:55:17.711Z,35.75
2022-09-25T23:57:47.868Z,37.50
